Time;durP1;ratioP1;P1;durP2;ratioP2;P2;SDS_P1;SDS_P2;PMS_P1;PMS_P2;Temp;Humidity;BMP_temperature;BMP_pressure;BME280_temperature;BME280_humidity;BME280_pressure;Samples;Min_cycle;Max_cycle;Signal;HPM_P1;HPM_P2
2022/01/16 16:39:50;;;;;;;38.30;13.23;;;;;;;;;;5119175;27;20426;-76
2022/01/16 16:42:16;;;;;;;34.83;13.65;;;;;;;;;;5118707;28;20028;-75
2022/01/16 16:44:43;;;;;;;35.28;14.02;;;;;;;;;;5118707;28;20019;-75
2022/01/16 16:47:09;;;;;;;41.13;14.40;;;;;;;;;;5110053;28;20313;-75
2022/01/16 16:49:39;;;;;;;31.90;12.00;;;;;;;;;;5101385;28;20103;-74
2022/01/16 16:52:06;;;;;;;41.25;15.23;;;;;;;;;;5118691;28;20035;-74
2022/01/16 16:54:31;;;;;;;42.55;15.20;;;;;;;;;;5118925;28;20012;-74
2022/01/16 16:56:57;;;;;;;43.13;15.43;;;;;;;;;;5118777;28;20030;-74
2022/01/16 16:59:22;;;;;;;41.90;15.25;;;;;;;;;;5100173;28;20306;-74
2022/01/16 17:01:48;;;;;;;39.13;14.40;;;;;;;;;;5118387;28;20051;-74
2022/01/16 17:04:13;;;;;;;35.80;14.60;;;;;;;;;;5113877;28;20062;-76
2022/01/16 17:06:40;;;;;;;39.28;14.93;;;;;;;;;;5099032;28;20265;-76
2022/01/16 17:09:07;;;;;;;39.78;15.93;;;;;;;;;;5098287;28;20031;-76
2022/01/16 17:11:33;;;;;;;40.78;16.00;;;;;;;;;;5096778;28;20020;-76
2022/01/16 17:13:58;;;;;;;41.28;15.02;;;;;;;;;;5097842;28;20343;-76
2022/01/16 17:16:24;;;;;;;40.13;15.75;;;;;;;;;;5117854;28;20020;-76
2022/01/16 17:18:53;;;;;;;43.45;16.75;;;;;;;;;;5118321;28;20028;-75
2022/01/16 17:21:18;;;;;;;40.42;15.25;;;;;;;;;;5132861;28;20029;-77
2022/01/16 17:23:44;;;;;;;41.58;16.27;;;;;;;;;;5133183;27;20028;-76
2022/01/16 17:26:10;;;;;;;43.28;17.52;;;;;;;;;;5118178;28;20024;-79
2022/01/16 17:28:36;;;;;;;41.60;16.50;;;;;;;;;;5117883;28;20343;-77
2022/01/16 17:31:02;;;;;;;33.35;14.90;;;;;;;;;;5109474;28;20047;-76
2022/01/16 17:33:27;;;;;;;34.00;14.65;;;;;;;;;;5096900;28;20316;-76
2022/01/16 17:35:53;;;;;;;37.03;14.80;;;;;;;;;;5097067;28;20017;-76
2022/01/16 17:38:19;;;;;;;37.83;15.68;;;;;;;;;;5096779;28;20041;-77
2022/01/16 17:40:45;;;;;;;35.50;15.13;;;;;;;;;;5097158;28;20032;-77
2022/01/16 17:43:10;;;;;;;35.85;14.68;;;;;;;;;;5106008;28;20055;-77
2022/01/16 17:45:35;;;;;;;36.72;15.48;;;;;;;;;;5117858;28;20087;-77
2022/01/16 17:48:02;;;;;;;36.25;15.57;;;;;;;;;;5117716;28;20036;-77
2022/01/16 17:50:28;;;;;;;41.22;15.88;;;;;;;;;;5093151;28;20032;-76
2022/01/16 17:52:53;;;;;;;34.22;14.20;;;;;;;;;;5084222;28;20024;-77
2022/01/16 17:55:21;;;;;;;36.78;15.60;;;;;;;;;;5087734;28;20040;-76
2022/01/16 17:57:47;;;;;;;32.90;13.63;;;;;;;;;;5086940;28;20028;-76
2022/01/16 18:00:15;;;;;;;34.20;14.88;;;;;;;;;;5082248;28;20017;-77
2022/01/16 18:02:43;;;;;;;38.70;14.30;;;;;;;;;;5085321;28;20103;-78
2022/01/16 18:05:10;;;;;;;38.17;13.73;;;;;;;;;;5081233;28;20044;-78
2022/01/16 18:07:36;;;;;;;34.53;13.48;;;;;;;;;;5082390;28;20276;-77
2022/01/16 18:10:04;;;;;;;36.17;13.88;;;;;;;;;;5088624;28;20032;-76
2022/01/16 18:12:30;;;;;;;34.97;13.60;;;;;;;;;;5083073;28;20017;-75
2022/01/16 18:14:55;;;;;;;35.55;14.52;;;;;;;;;;5082723;28;20324;-75
2022/01/16 18:17:20;;;;;;;38.85;15.20;;;;;;;;;;5080607;28;20032;-74
2022/01/16 18:19:46;;;;;;;46.83;20.95;;;;;;;;;;5082223;28;20024;-73
2022/01/16 18:22:11;;;;;;;35.67;14.27;;;;;;;;;;5082215;28;20332;-76
2022/01/16 18:24:37;;;;;;;36.95;15.48;;;;;;;;;;5082533;28;20258;-74
2022/01/16 18:27:04;;;;;;;37.20;14.85;;;;;;;;;;5090844;28;20334;-76
2022/01/16 18:29:30;;;;;;;40.67;15.80;;;;;;;;;;5081962;28;20283;-73
2022/01/16 18:31:55;;;;;;;39.10;14.88;;;;;;;;;;5084601;28;20024;-80
2022/01/16 18:34:21;;;;;;;39.97;16.10;;;;;;;;;;5086015;28;20073;-81
2022/01/16 18:36:48;;;;;;;33.55;12.45;;;;;;;;;;5086212;28;20016;-77
2022/01/16 18:39:14;;;;;;;38.28;14.75;;;;;;;;;;5090456;28;20047;-79
2022/01/16 18:41:39;;;;;;;46.90;16.13;;;;;;;;;;5085322;28;20028;-83
2022/01/16 18:44:05;;;;;;;36.10;14.88;;;;;;;;;;5081918;28;20239;-84
2022/01/16 18:46:32;;;;;;;39.45;15.77;;;;;;;;;;5081624;28;20020;-75
2022/01/16 18:48:57;;;;;;;39.38;15.68;;;;;;;;;;5082698;28;20028;-74
2022/01/16 18:51:25;;;;;;;41.28;15.82;;;;;;;;;;5081225;28;20020;-74
2022/01/16 18:53:52;;;;;;;38.42;14.80;;;;;;;;;;5082618;28;20020;-74
2022/01/16 18:56:17;;;;;;;42.45;16.92;;;;;;;;;;5082628;28;20306;-74
2022/01/16 18:58:44;;;;;;;46.50;16.92;;;;;;;;;;5082369;28;20032;-74
2022/01/16 19:01:09;;;;;;;44.70;16.13;;;;;;;;;;5081562;28;20032;-75
2022/01/16 19:03:35;;;;;;;46.30;17.00;;;;;;;;;;5083683;28;20031;-74
2022/01/16 19:06:00;;;;;;;41.15;15.40;;;;;;;;;;5102515;28;20020;-73
2022/01/16 19:08:25;;;;;;;46.63;17.23;;;;;;;;;;5102562;28;20036;-73
2022/01/16 19:10:52;;;;;;;41.63;15.90;;;;;;;;;;5091339;28;20031;-73
2022/01/16 19:13:18;;;;;;;44.03;16.30;;;;;;;;;;5102334;28;20039;-74
2022/01/16 19:15:43;;;;;;;37.67;15.38;;;;;;;;;;5102478;28;20024;-77
2022/01/16 19:18:09;;;;;;;37.13;14.68;;;;;;;;;;5102085;28;20050;-75
2022/01/16 19:20:34;;;;;;;41.70;15.18;;;;;;;;;;5102090;28;20036;-75
2022/01/16 19:23:00;;;;;;;40.85;15.48;;;;;;;;;;5101967;28;20031;-78
2022/01/16 19:25:26;;;;;;;35.80;14.13;;;;;;;;;;5101160;28;20190;-76
2022/01/16 19:27:52;;;;;;;43.03;15.18;;;;;;;;;;5100700;28;20393;-76
2022/01/16 19:30:19;;;;;;;44.70;15.77;;;;;;;;;;5101021;28;20047;-77
2022/01/16 19:32:44;;;;;;;39.40;14.30;;;;;;;;;;5090191;28;20417;-76
2022/01/16 19:35:12;;;;;;;38.67;14.68;;;;;;;;;;5096663;28;20047;-76
2022/01/16 19:37:38;;;;;;;45.95;15.73;;;;;;;;;;5101460;28;20027;-77
2022/01/16 19:40:03;;;;;;;35.97;14.77;;;;;;;;;;5100984;28;20024;-76
2022/01/16 19:42:29;;;;;;;38.78;14.98;;;;;;;;;;5101956;28;20032;-77
2022/01/16 19:44:54;;;;;;;45.60;16.63;;;;;;;;;;5101497;28;20216;-77
2022/01/16 19:47:20;;;;;;;37.08;15.57;;;;;;;;;;5096605;28;20499;-75
2022/01/16 19:49:46;;;;;;;44.13;15.27;;;;;;;;;;5100652;28;20035;-76
2022/01/16 19:52:13;;;;;;;40.20;15.45;;;;;;;;;;5101332;28;20032;-76
2022/01/16 19:54:40;;;;;;;40.03;15.13;;;;;;;;;;5100940;28;20016;-76
2022/01/16 19:57:07;;;;;;;39.30;15.68;;;;;;;;;;5101653;28;20024;-76
2022/01/16 19:59:34;;;;;;;37.60;15.18;;;;;;;;;;5101297;28;20019;-76
2022/01/16 20:01:59;;;;;;;34.45;14.60;;;;;;;;;;5084082;28;20029;-74
2022/01/16 20:04:24;;;;;;;47.10;17.27;;;;;;;;;;5080943;28;20067;-75
2022/01/16 20:06:50;;;;;;;40.50;15.85;;;;;;;;;;5090648;28;20024;-75
2022/01/16 20:09:15;;;;;;;34.70;14.32;;;;;;;;;;5087428;28;20351;-75
2022/01/16 20:11:41;;;;;;;43.10;15.30;;;;;;;;;;5098022;28;20016;-76
2022/01/16 20:14:06;;;;;;;42.70;16.45;;;;;;;;;;5099967;28;20334;-75
2022/01/16 20:16:31;;;;;;;40.58;15.05;;;;;;;;;;5099619;28;20016;-76
2022/01/16 20:18:57;;;;;;;41.65;15.23;;;;;;;;;;5099224;28;20095;-76
2022/01/16 20:21:23;;;;;;;43.08;16.95;;;;;;;;;;5099674;28;20016;-75
2022/01/16 20:23:49;;;;;;;42.38;16.92;;;;;;;;;;5099432;28;20251;-76
2022/01/16 20:26:15;;;;;;;44.47;16.92;;;;;;;;;;5099996;28;20227;-76
2022/01/16 20:28:42;;;;;;;47.13;17.60;;;;;;;;;;5099432;28;20032;-76
2022/01/16 20:31:08;;;;;;;44.70;18.00;;;;;;;;;;5100099;28;20016;-76
2022/01/16 20:33:34;;;;;;;41.55;17.15;;;;;;;;;;5099443;28;20031;-76
2022/01/16 20:35:59;;;;;;;44.03;18.35;;;;;;;;;;5100058;28;20263;-74
2022/01/16 20:38:25;;;;;;;47.70;18.80;;;;;;;;;;5100179;28;20464;-74
2022/01/16 20:40:50;;;;;;;45.85;16.65;;;;;;;;;;5100125;28;20024;-74
2022/01/16 20:43:17;;;;;;;48.97;18.50;;;;;;;;;;5100238;28;20012;-76
2022/01/16 20:45:42;;;;;;;51.75;17.70;;;;;;;;;;5098969;28;20335;-74
2022/01/16 20:48:08;;;;;;;46.17;17.55;;;;;;;;;;5080029;28;20015;-75
2022/01/16 20:50:34;;;;;;;52.65;18.73;;;;;;;;;;5079851;28;20120;-75
2022/01/16 20:52:59;;;;;;;52.67;17.95;;;;;;;;;;5085720;28;20087;-74
2022/01/16 20:55:26;;;;;;;43.42;16.02;;;;;;;;;;5100145;28;20434;-75
2022/01/16 20:57:52;;;;;;;47.17;16.38;;;;;;;;;;5094340;28;20028;-75
2022/01/16 21:00:18;;;;;;;51.88;17.30;;;;;;;;;;5088233;28;20087;-74
2022/01/16 21:02:43;;;;;;;46.58;17.80;;;;;;;;;;5088834;28;20035;-76
2022/01/16 21:05:09;;;;;;;46.83;17.85;;;;;;;;;;5090751;28;20052;-76
2022/01/16 21:07:35;;;;;;;46.35;15.35;;;;;;;;;;5097124;28;20373;-76
2022/01/16 21:10:00;;;;;;;43.03;16.20;;;;;;;;;;5090749;28;20039;-74
2022/01/16 21:12:26;;;;;;;44.33;16.60;;;;;;;;;;5080227;28;20012;-78
2022/01/16 21:14:52;;;;;;;54.13;18.02;;;;;;;;;;5082240;28;20033;-75
2022/01/16 21:17:18;;;;;;;48.03;16.98;;;;;;;;;;5081880;28;20047;-75
2022/01/16 21:19:47;;;;;;;47.78;16.25;;;;;;;;;;5080475;28;20020;-76
2022/01/16 21:22:15;;;;;;;50.33;17.48;;;;;;;;;;5085113;28;20066;-75
2022/01/16 21:24:43;;;;;;;47.00;15.93;;;;;;;;;;5088684;28;20038;-76
2022/01/16 21:27:13;;;;;;;48.30;17.05;;;;;;;;;;5092648;28;20016;-76
2022/01/16 21:29:42;;;;;;;51.72;17.88;;;;;;;;;;5092858;28;20043;-75
2022/01/16 21:32:10;;;;;;;47.53;16.08;;;;;;;;;;5088349;28;20052;-76
2022/01/16 21:34:40;;;;;;;46.28;16.40;;;;;;;;;;5092070;28;20032;-75
2022/01/16 21:37:06;;;;;;;54.83;17.90;;;;;;;;;;5089522;28;21335;-76
2022/01/16 21:39:33;;;;;;;52.70;17.67;;;;;;;;;;5091119;28;20048;-76
2022/01/16 21:41:59;;;;;;;47.28;16.05;;;;;;;;;;5096884;28;20039;-76
2022/01/16 21:44:24;;;;;;;49.88;18.42;;;;;;;;;;5094532;28;20024;-76
2022/01/16 21:46:49;;;;;;;48.95;17.10;;;;;;;;;;5092426;28;20036;-75
2022/01/16 21:49:15;;;;;;;47.40;17.60;;;;;;;;;;5094356;28;20038;-74
2022/01/16 21:51:45;;;;;;;48.28;17.83;;;;;;;;;;5102350;28;20032;-75
2022/01/16 21:54:11;;;;;;;57.30;17.08;;;;;;;;;;5084433;28;20212;-75
2022/01/16 21:56:36;;;;;;;52.80;17.52;;;;;;;;;;5082649;28;20069;-75
2022/01/16 21:59:02;;;;;;;49.75;17.88;;;;;;;;;;5082440;28;20028;-75
2022/01/16 22:01:29;;;;;;;48.28;17.25;;;;;;;;;;5082697;28;20092;-75
2022/01/16 22:03:54;;;;;;;51.95;17.58;;;;;;;;;;5080919;28;20055;-74
2022/01/16 22:06:19;;;;;;;60.40;18.73;;;;;;;;;;5082559;28;20366;-74
2022/01/16 22:08:44;;;;;;;59.08;19.10;;;;;;;;;;5084473;28;20432;-75
2022/01/16 22:11:10;;;;;;;47.67;18.30;;;;;;;;;;5102485;28;20058;-74
2022/01/16 22:13:35;;;;;;;61.05;19.35;;;;;;;;;;5102085;28;20032;-74
2022/01/16 22:16:05;;;;;;;59.65;19.50;;;;;;;;;;5094321;28;20028;-74
2022/01/16 22:18:31;;;;;;;60.28;19.50;;;;;;;;;;5094861;28;20039;-75
2022/01/16 22:20:56;;;;;;;58.90;19.20;;;;;;;;;;5093913;28;20028;-74
2022/01/16 22:23:23;;;;;;;61.38;20.05;;;;;;;;;;5095541;28;20095;-74
2022/01/16 22:25:48;;;;;;;58.38;18.95;;;;;;;;;;5101554;28;20233;-74
2022/01/16 22:28:15;;;;;;;69.55;19.70;;;;;;;;;;5102815;28;20046;-74
2022/01/16 22:30:40;;;;;;;54.85;18.90;;;;;;;;;;5098534;28;20057;-74
2022/01/16 22:33:06;;;;;;;62.35;19.52;;;;;;;;;;5102158;28;20028;-74
2022/01/16 22:35:31;;;;;;;59.75;19.75;;;;;;;;;;5092830;28;20031;-73
2022/01/16 22:37:57;;;;;;;54.67;18.08;;;;;;;;;;5101090;28;20052;-74
2022/01/16 22:40:22;;;;;;;58.45;18.70;;;;;;;;;;5095882;28;20024;-73
2022/01/16 22:42:47;;;;;;;61.42;18.83;;;;;;;;;;5100652;28;20077;-74
2022/01/16 22:45:13;;;;;;;50.92;17.38;;;;;;;;;;5098596;28;20322;-74
2022/01/16 22:47:39;;;;;;;53.47;18.65;;;;;;;;;;5084482;28;20025;-74
2022/01/16 22:50:05;;;;;;;52.10;17.92;;;;;;;;;;5099487;28;20024;-74
2022/01/16 22:52:33;;;;;;;46.60;16.75;;;;;;;;;;5102351;28;20091;-74
2022/01/16 22:54:58;;;;;;;47.80;17.13;;;;;;;;;;5102383;28;20031;-74
2022/01/16 22:57:25;;;;;;;42.28;16.27;;;;;;;;;;5101437;28;20145;-73
2022/01/16 22:59:51;;;;;;;45.13;17.08;;;;;;;;;;5100346;28;20042;-74
2022/01/16 23:02:17;;;;;;;50.22;17.33;;;;;;;;;;5095491;28;20327;-73
2022/01/16 23:04:43;;;;;;;43.33;16.75;;;;;;;;;;5090892;28;20028;-73
2022/01/16 23:07:09;;;;;;;41.70;15.90;;;;;;;;;;5099838;28;20204;-74
2022/01/16 23:09:35;;;;;;;44.22;16.90;;;;;;;;;;5100292;28;20044;-74
2022/01/16 23:12:01;;;;;;;41.25;16.73;;;;;;;;;;5084387;28;20020;-74
2022/01/16 23:14:26;;;;;;;48.28;16.90;;;;;;;;;;5089670;28;20021;-74
2022/01/16 23:16:53;;;;;;;47.88;16.55;;;;;;;;;;5101081;28;20024;-74
2022/01/16 23:19:19;;;;;;;45.47;16.27;;;;;;;;;;5099974;28;20028;-73
2022/01/16 23:21:47;;;;;;;44.08;16.85;;;;;;;;;;5097171;28;20028;-74
2022/01/16 23:24:13;;;;;;;46.63;16.30;;;;;;;;;;5089554;28;20385;-74
2022/01/16 23:26:39;;;;;;;40.38;15.73;;;;;;;;;;5088893;28;20095;-74
2022/01/16 23:29:05;;;;;;;43.53;16.65;;;;;;;;;;5093979;28;20028;-74
2022/01/16 23:31:31;;;;;;;44.35;16.58;;;;;;;;;;5094402;28;20036;-74
2022/01/16 23:33:56;;;;;;;41.65;16.30;;;;;;;;;;5100676;28;20028;-74
2022/01/16 23:36:22;;;;;;;45.53;16.35;;;;;;;;;;5099426;28;20024;-74
2022/01/16 23:38:47;;;;;;;37.80;15.32;;;;;;;;;;5096054;28;20043;-74
2022/01/16 23:41:16;;;;;;;40.30;15.20;;;;;;;;;;5090642;28;20028;-74
2022/01/16 23:43:41;;;;;;;46.00;16.65;;;;;;;;;;5091380;28;20028;-74
2022/01/16 23:46:13;;;;;;;42.40;16.13;;;;;;;;;;5098747;28;20024;-74
2022/01/16 23:48:45;;;;;;;46.30;16.55;;;;;;;;;;5097142;28;20032;-74
2022/01/16 23:51:11;;;;;;;48.13;16.58;;;;;;;;;;5091705;28;20398;-74
2022/01/16 23:53:36;;;;;;;47.10;17.58;;;;;;;;;;5097889;28;20027;-74
2022/01/16 23:56:02;;;;;;;43.45;16.90;;;;;;;;;;5099100;28;20026;-74
2022/01/16 23:58:28;;;;;;;38.92;15.60;;;;;;;;;;5091057;28;20028;-74
